createdAt,value
2022-10-20T00:01:22.267Z,6.09
2022-10-20T00:03:50.206Z,6.08
2022-10-20T00:06:24.210Z,6.07
2022-10-20T00:08:53.247Z,6.05
2022-10-20T00:11:22.391Z,6.03
2022-10-20T00:13:51.617Z,6.03
2022-10-20T00:16:19.834Z,5.97
2022-10-20T00:18:47.737Z,5.86
2022-10-20T00:21:19.437Z,5.82
2022-10-20T00:23:46.994Z,5.78
2022-10-20T00:26:17.567Z,5.71
2022-10-20T00:28:46.286Z,5.66
2022-10-20T00:31:14.205Z,5.68
2022-10-20T00:33:42.014Z,5.68
2022-10-20T00:36:14.601Z,5.65
2022-10-20T00:38:42.595Z,5.66
2022-10-20T00:41:13.777Z,5.63
2022-10-20T00:43:56.506Z,5.60
2022-10-20T00:46:39.175Z,5.64
2022-10-20T00:49:22.267Z,5.61
2022-10-20T00:51:52.761Z,5.61
2022-10-20T00:54:24.635Z,5.55
2022-10-20T00:56:54.958Z,5.53
2022-10-20T00:59:26.978Z,5.50
2022-10-20T01:01:55.998Z,5.51
2022-10-20T01:04:24.954Z,5.48
2022-10-20T01:06:52.487Z,5.51
2022-10-20T01:09:19.952Z,5.62
2022-10-20T01:12:02.432Z,5.68
2022-10-20T01:14:48.526Z,5.69
2022-10-20T01:17:50.636Z,5.65
2022-10-20T01:20:44.884Z,5.64
2022-10-20T01:23:48.682Z,5.58
2022-10-20T01:26:28.375Z,5.63
2022-10-20T01:28:58.372Z,5.64
2022-10-20T01:31:41.084Z,5.54
2022-10-20T01:34:12.144Z,5.51
2022-10-20T01:36:47.649Z,5.31
2022-10-20T01:39:24.657Z,5.26
2022-10-20T01:41:58.541Z,5.17
2022-10-20T01:44:29.462Z,5.35
2022-10-20T01:46:58.765Z,5.49
2022-10-20T01:49:27.257Z,5.48
2022-10-20T01:51:56.231Z,5.45
2022-10-20T01:54:28.945Z,5.47
2022-10-20T01:57:15.466Z,5.49
2022-10-20T02:00:02.047Z,5.51
2022-10-20T02:02:40.572Z,5.48
2022-10-20T02:05:37.725Z,5.41
2022-10-20T02:08:44.767Z,5.40
2022-10-20T02:11:24.525Z,5.45
2022-10-20T02:13:56.205Z,5.38
2022-10-20T02:16:37.595Z,5.42
2022-10-20T02:19:07.860Z,5.31
2022-10-20T02:21:35.304Z,5.32
2022-10-20T02:24:06.910Z,5.27
2022-10-20T02:26:37.496Z,5.29
2022-10-20T02:29:21.885Z,5.20
2022-10-20T02:31:49.483Z,5.19
2022-10-20T02:34:16.901Z,5.21
2022-10-20T02:36:44.682Z,5.23
2022-10-20T02:39:12.568Z,5.12
2022-10-20T02:41:40.025Z,5.07
2022-10-20T02:44:07.453Z,5.04
2022-10-20T02:46:34.903Z,5.10
2022-10-20T02:49:02.323Z,5.05
2022-10-20T02:51:29.793Z,4.99
2022-10-20T02:53:57.245Z,4.99
2022-10-20T02:56:26.497Z,4.85
2022-10-20T02:58:56.360Z,4.97
2022-10-20T03:01:25.043Z,4.98
2022-10-20T03:03:55.830Z,4.89
2022-10-20T03:06:23.376Z,4.77
2022-10-20T03:08:50.879Z,4.64
2022-10-20T03:11:18.613Z,4.68
2022-10-20T03:13:46.024Z,4.60
2022-10-20T03:16:13.553Z,4.54
2022-10-20T03:18:40.993Z,4.51
2022-10-20T03:21:08.544Z,4.51
2022-10-20T03:23:36.114Z,4.53
2022-10-20T03:26:05.204Z,4.49
2022-10-20T03:28:32.900Z,4.43
2022-10-20T03:31:00.526Z,4.50
2022-10-20T03:33:28.465Z,4.44
2022-10-20T03:35:55.999Z,4.57
2022-10-20T03:38:23.983Z,4.54
2022-10-20T03:40:51.555Z,4.52
2022-10-20T03:43:19.143Z,4.55
2022-10-20T03:45:46.595Z,4.63
2022-10-20T03:48:14.132Z,4.69
2022-10-20T03:50:42.725Z,4.75
2022-10-20T03:53:14.600Z,4.81
2022-10-20T03:55:42.037Z,4.93
2022-10-20T03:58:09.539Z,4.91
2022-10-20T04:00:36.980Z,4.90
2022-10-20T04:03:04.402Z,4.94
2022-10-20T04:05:31.791Z,5.01
2022-10-20T04:07:59.333Z,4.97
2022-10-20T04:10:26.760Z,4.99
2022-10-20T04:12:58.720Z,5.05
2022-10-20T04:15:26.212Z,5.14
2022-10-20T04:17:53.822Z,5.14
2022-10-20T04:20:21.304Z,5.23
2022-10-20T04:22:48.803Z,5.29
2022-10-20T04:25:16.314Z,5.35
2022-10-20T04:27:44.030Z,5.42
2022-10-20T04:30:11.743Z,5.40
2022-10-20T04:32:39.303Z,5.35
2022-10-20T04:35:07.293Z,5.50
2022-10-20T04:37:35.305Z,5.58
2022-10-20T04:40:03.834Z,5.63
2022-10-20T04:42:31.282Z,5.61
2022-10-20T04:47:34.769Z,5.73
2022-10-20T04:50:02.429Z,5.76
2022-10-20T04:52:30.019Z,5.75
2022-10-20T04:54:57.541Z,5.87
2022-10-20T04:57:25.193Z,5.93
2022-10-20T04:59:52.652Z,6.06
2022-10-20T05:02:20.169Z,6.03
2022-10-20T05:04:47.573Z,5.95
2022-10-20T05:07:15.161Z,5.89
2022-10-20T05:09:42.583Z,5.87
2022-10-20T05:12:10.105Z,5.87
2022-10-20T05:14:37.741Z,5.90
2022-10-20T05:17:07.877Z,5.93
2022-10-20T05:19:37.439Z,5.91
2022-10-20T05:22:04.901Z,5.89
2022-10-20T05:24:32.329Z,5.98
2022-10-20T05:26:59.798Z,6.01
2022-10-20T05:29:27.242Z,5.99
2022-10-20T05:31:54.813Z,6.02
2022-10-20T05:34:22.292Z,6.07
2022-10-20T05:36:49.853Z,6.08
2022-10-20T05:39:17.372Z,6.06
2022-10-20T05:41:44.909Z,6.05
2022-10-20T05:44:13.097Z,6.29
2022-10-20T05:46:43.748Z,6.66
2022-10-20T05:49:16.877Z,7.04
2022-10-20T05:51:45.683Z,7.40
2022-10-20T05:54:13.800Z,7.67
2022-10-20T05:56:41.805Z,7.85
2022-10-20T05:59:10.323Z,8.10
2022-10-20T06:01:56.522Z,8.49
2022-10-20T06:04:24.665Z,8.84
2022-10-20T06:06:52.849Z,9.21
2022-10-20T06:09:22.840Z,9.33
2022-10-20T06:11:51.284Z,9.44
2022-10-20T06:14:19.364Z,9.75
2022-10-20T06:16:50.932Z,9.37
2022-10-20T06:19:18.672Z,9.86
2022-10-20T06:21:48.881Z,10.48
2022-10-20T06:24:18.691Z,10.25
2022-10-20T06:26:46.644Z,10.53
2022-10-20T06:29:18.061Z,10.48
2022-10-20T06:31:48.332Z,10.32
2022-10-20T06:34:21.480Z,10.24
2022-10-20T06:36:49.911Z,10.56
2022-10-20T06:39:23.113Z,10.62
2022-10-20T06:41:53.250Z,10.71
2022-10-20T06:44:23.870Z,10.95
2022-10-20T06:46:54.865Z,11.16
2022-10-20T06:49:22.893Z,10.79
2022-10-20T06:51:50.842Z,10.65
2022-10-20T06:54:18.810Z,10.53
2022-10-20T06:56:46.334Z,10.57
2022-10-20T06:59:13.747Z,11.09
2022-10-20T07:01:43.088Z,10.88
2022-10-20T07:04:13.921Z,10.93
2022-10-20T07:06:43.975Z,11.02
2022-10-20T07:09:20.904Z,11.18
2022-10-20T07:11:52.641Z,10.76
2022-10-20T07:14:20.511Z,10.94
2022-10-20T07:16:48.110Z,11.07
2022-10-20T07:19:15.927Z,10.93
2022-10-20T07:21:45.583Z,10.95
2022-10-20T07:24:14.134Z,11.29
2022-10-20T07:26:41.941Z,11.22
2022-10-20T07:29:10.326Z,11.27
2022-10-20T07:31:46.114Z,11.47
2022-10-20T07:34:31.270Z,11.09
2022-10-20T07:36:59.139Z,11.38
2022-10-20T07:39:27.160Z,11.21
2022-10-20T07:41:54.831Z,11.42
2022-10-20T07:44:22.500Z,11.66
2022-10-20T07:46:50.231Z,11.78
2022-10-20T07:52:05.990Z,11.86
2022-10-20T07:54:33.581Z,11.86
2022-10-20T07:57:01.010Z,11.48
2022-10-20T07:59:29.709Z,11.43
2022-10-20T08:01:59.700Z,11.22
2022-10-20T08:04:28.540Z,11.74
2022-10-20T08:06:56.010Z,11.98
2022-10-20T08:09:23.919Z,12.11
2022-10-20T08:11:55.323Z,12.12
2022-10-20T08:14:27.233Z,12.25
2022-10-20T08:16:59.088Z,12.21
2022-10-20T08:19:46.104Z,12.37
2022-10-20T08:22:13.629Z,12.28
2022-10-20T08:24:41.019Z,12.04
2022-10-20T08:27:08.509Z,11.99
2022-10-20T08:29:36.942Z,11.67
2022-10-20T08:32:05.290Z,11.79
2022-10-20T08:34:32.890Z,11.93
2022-10-20T08:37:00.377Z,11.81
2022-10-20T08:39:28.035Z,11.71
2022-10-20T08:42:08.500Z,11.70
2022-10-20T08:44:40.097Z,11.68
2022-10-20T08:47:19.385Z,11.64
2022-10-20T08:49:47.077Z,11.67
2022-10-20T08:52:15.640Z,11.70
2022-10-20T08:54:43.423Z,11.41
2022-10-20T08:57:34.535Z,11.35
2022-10-20T09:00:25.972Z,11.37
2022-10-20T09:02:54.595Z,11.24
2022-10-20T09:05:26.976Z,11.21
2022-10-20T09:07:55.280Z,11.31
2022-10-20T09:10:29.298Z,11.20
2022-10-20T09:12:57.519Z,11.51
2022-10-20T09:15:26.965Z,11.71
2022-10-20T09:18:04.101Z,11.70
2022-10-20T09:20:42.380Z,11.52
2022-10-20T09:23:35.479Z,11.65
2022-10-20T09:26:02.379Z,11.27
2022-10-20T09:28:34.968Z,11.58
2022-10-20T09:31:21.518Z,11.78
2022-10-20T09:33:49.245Z,11.96
2022-10-20T09:36:21.066Z,12.33
2022-10-20T09:38:51.886Z,12.02
2022-10-20T09:41:26.621Z,12.00
2022-10-20T09:44:08.355Z,12.16
2022-10-20T09:46:50.725Z,12.22
2022-10-20T09:49:27.759Z,12.06
2022-10-20T09:51:55.637Z,12.05
2022-10-20T09:54:25.789Z,12.20
2022-10-20T09:56:54.219Z,12.22
2022-10-20T09:59:33.640Z,12.42
2022-10-20T10:02:26.907Z,12.12
2022-10-20T10:05:12.495Z,11.99
2022-10-20T10:07:40.246Z,12.08
2022-10-20T10:10:29.330Z,11.98
2022-10-20T10:13:04.071Z,12.11
2022-10-20T10:15:34.653Z,12.25
2022-10-20T10:18:19.435Z,12.42
2022-10-20T10:20:47.134Z,12.19
2022-10-20T10:23:21.392Z,12.04
2022-10-20T10:25:50.329Z,12.10
2022-10-20T10:28:32.355Z,12.04
2022-10-20T10:31:18.426Z,11.86
2022-10-20T10:33:46.498Z,11.75
2022-10-20T10:36:32.369Z,12.01
2022-10-20T10:39:00.317Z,11.87
2022-10-20T10:41:55.735Z,12.13
2022-10-20T10:44:48.126Z,12.39
2022-10-20T10:47:49.472Z,12.54
2022-10-20T10:50:46.564Z,12.43
2022-10-20T10:53:25.800Z,12.55
2022-10-20T10:56:05.469Z,12.49
2022-10-20T10:58:46.608Z,12.51
2022-10-20T11:01:33.307Z,12.58
2022-10-20T11:04:03.786Z,12.83
2022-10-20T11:06:45.100Z,12.60
2022-10-20T11:09:28.367Z,12.66
2022-10-20T11:12:20.557Z,12.52
2022-10-20T11:15:06.317Z,12.49
2022-10-20T11:17:44.909Z,12.40
2022-10-20T11:20:43.906Z,12.32
2022-10-20T11:23:30.447Z,12.34
2022-10-20T11:26:28.986Z,12.35
2022-10-20T11:28:58.623Z,12.27
2022-10-20T11:31:46.887Z,12.47
2022-10-20T11:34:46.936Z,12.44
2022-10-20T11:41:36.604Z,12.18
2022-10-20T11:44:25.532Z,12.06
2022-10-20T11:47:06.882Z,12.09
2022-10-20T11:49:34.941Z,12.11
2022-10-20T11:52:20.272Z,12.12
2022-10-20T11:55:18.696Z,12.05
2022-10-20T11:57:57.617Z,12.04
2022-10-20T12:00:39.847Z,12.06
2022-10-20T12:03:39.586Z,12.20
2022-10-20T12:06:25.555Z,12.13
2022-10-20T12:09:22.220Z,12.34
2022-10-20T12:12:15.766Z,12.20
2022-10-20T12:14:48.076Z,12.15
2022-10-20T12:17:39.088Z,12.23
2022-10-20T12:20:21.624Z,12.15
2022-10-20T12:22:55.036Z,12.28
2022-10-20T12:25:36.105Z,11.92
2022-10-20T12:28:33.192Z,11.93
2022-10-20T12:31:06.581Z,11.68
2022-10-20T12:33:53.546Z,11.87
2022-10-20T12:36:32.966Z,11.81
2022-10-20T12:39:21.776Z,11.85
2022-10-20T12:42:00.064Z,11.93
2022-10-20T12:44:32.255Z,11.86
2022-10-20T12:47:08.296Z,11.70
2022-10-20T12:49:40.665Z,11.73
2022-10-20T12:52:21.235Z,11.92
2022-10-20T12:54:55.994Z,11.88
2022-10-20T12:57:41.599Z,11.96
2022-10-20T13:00:23.966Z,11.91
2022-10-20T13:02:56.222Z,11.81
2022-10-20T13:05:29.755Z,11.71
2022-10-20T13:08:21.406Z,11.71
2022-10-20T13:10:49.504Z,11.69
2022-10-20T13:13:20.108Z,11.74
2022-10-20T13:15:53.976Z,11.74
2022-10-20T13:18:27.370Z,11.69
2022-10-20T13:21:16.052Z,11.60
2022-10-20T13:23:47.476Z,11.62
2022-10-20T13:26:23.959Z,11.39
2022-10-20T13:28:56.550Z,11.42
2022-10-20T13:31:40.485Z,11.27
2022-10-20T13:34:28.064Z,11.10
2022-10-20T13:37:22.946Z,10.95
2022-10-20T13:39:53.514Z,10.95
2022-10-20T13:42:24.176Z,11.14
2022-10-20T13:45:08.265Z,11.10
2022-10-20T13:47:35.729Z,11.06
2022-10-20T13:50:10.651Z,11.10
2022-10-20T13:52:44.549Z,10.85
2022-10-20T13:55:16.850Z,10.87
2022-10-20T13:57:56.307Z,10.50
2022-10-20T14:00:30.643Z,10.54
2022-10-20T14:03:15.764Z,10.42
2022-10-20T14:05:43.320Z,10.41
2022-10-20T14:08:14.547Z,10.44
2022-10-20T14:11:05.263Z,10.44
2022-10-20T14:13:35.697Z,10.53
2022-10-20T14:16:13.576Z,10.59
2022-10-20T14:18:41.088Z,10.39
2022-10-20T14:21:19.019Z,10.41
2022-10-20T14:23:49.326Z,10.51
2022-10-20T14:26:20.845Z,10.41
2022-10-20T14:28:53.108Z,10.46
2022-10-20T14:31:22.884Z,10.36
2022-10-20T14:33:52.266Z,10.37
2022-10-20T14:39:01.370Z,10.38
2022-10-20T14:41:34.827Z,10.39
2022-10-20T14:44:16.242Z,10.45
2022-10-20T14:46:50.766Z,10.20
2022-10-20T14:49:24.158Z,10.30
2022-10-20T14:52:00.677Z,10.25
2022-10-20T14:54:28.230Z,10.13
2022-10-20T14:57:09.203Z,10.13
2022-10-20T15:00:04.727Z,10.06
2022-10-20T15:02:42.708Z,10.02
2022-10-20T15:05:31.489Z,10.05
2022-10-20T15:08:08.689Z,9.94
2022-10-20T15:10:36.499Z,9.91
2022-10-20T15:13:04.483Z,9.76
2022-10-20T15:15:39.215Z,9.60
2022-10-20T15:18:06.693Z,9.61
2022-10-20T15:20:38.884Z,9.60
2022-10-20T15:23:16.816Z,9.59
2022-10-20T15:25:56.117Z,9.63
2022-10-20T15:28:31.058Z,9.53
2022-10-20T15:31:00.613Z,9.45
2022-10-20T15:33:28.536Z,9.42
2022-10-20T15:35:56.048Z,9.30
2022-10-20T15:38:23.553Z,9.32
2022-10-20T15:40:51.091Z,9.24
2022-10-20T15:43:19.403Z,9.15
2022-10-20T15:45:55.060Z,9.09
2022-10-20T15:48:26.143Z,9.10
2022-10-20T15:50:54.491Z,9.00
2022-10-20T15:53:21.923Z,8.98
2022-10-20T15:55:49.457Z,8.91
2022-10-20T15:58:16.842Z,8.97
2022-10-20T16:00:44.427Z,8.98
2022-10-20T16:03:18.151Z,8.88
2022-10-20T16:05:46.948Z,8.85
2022-10-20T16:10:47.132Z,8.86
2022-10-20T16:13:15.924Z,8.82
2022-10-20T16:15:44.225Z,8.76
2022-10-20T16:18:11.759Z,8.71
2022-10-20T16:20:39.312Z,8.68
2022-10-20T16:23:06.763Z,8.75
2022-10-20T16:25:34.291Z,8.68
2022-10-20T16:28:01.852Z,8.71
2022-10-20T16:30:29.296Z,8.75
2022-10-20T16:32:56.766Z,8.73
2022-10-20T16:35:24.335Z,8.75
2022-10-20T16:37:51.826Z,8.82
2022-10-20T16:40:19.766Z,8.78
2022-10-20T16:42:47.276Z,8.76
2022-10-20T16:45:14.849Z,8.75
2022-10-20T16:47:42.415Z,8.77
2022-10-20T16:50:09.976Z,8.79
2022-10-20T16:52:37.566Z,8.77
2022-10-20T16:55:05.462Z,8.84
2022-10-20T16:57:38.979Z,8.85
2022-10-20T17:00:08.654Z,8.85
2022-10-20T17:02:37.125Z,8.82
2022-10-20T17:05:08.232Z,8.80
2022-10-20T17:07:37.563Z,8.77
2022-10-20T17:10:06.185Z,8.81
2022-10-20T17:12:33.685Z,8.85
2022-10-20T17:15:01.087Z,8.82
2022-10-20T17:17:28.567Z,8.96
2022-10-20T17:19:56.006Z,8.92
2022-10-20T17:22:23.551Z,8.91
2022-10-20T17:24:50.986Z,8.90
2022-10-20T17:27:18.384Z,8.92
2022-10-20T17:29:47.181Z,8.98
2022-10-20T17:32:17.434Z,8.94
2022-10-20T17:34:45.864Z,8.94
2022-10-20T17:37:13.266Z,9.10
2022-10-20T17:39:40.701Z,9.12
2022-10-20T17:42:08.165Z,9.14
2022-10-20T17:44:35.635Z,9.14
2022-10-20T17:47:04.776Z,9.11
2022-10-20T17:49:32.245Z,9.06
2022-10-20T17:51:59.729Z,9.10
2022-10-20T17:54:27.205Z,9.10
2022-10-20T17:56:54.729Z,9.19
2022-10-20T17:59:22.214Z,9.25
2022-10-20T18:01:49.840Z,9.16
2022-10-20T18:04:17.622Z,9.23
2022-10-20T18:06:45.722Z,9.21
2022-10-20T18:09:15.850Z,9.26
2022-10-20T18:11:46.454Z,9.37
2022-10-20T18:14:13.954Z,9.41
2022-10-20T18:16:42.298Z,9.37
2022-10-20T18:19:14.563Z,9.29
2022-10-20T18:21:42.943Z,9.26
2022-10-20T18:24:13.563Z,9.25
2022-10-20T18:26:41.675Z,9.31
2022-10-20T18:29:10.010Z,9.34
2022-10-20T18:31:39.580Z,9.45
2022-10-20T18:34:13.247Z,9.39
2022-10-20T18:36:44.943Z,9.38
2022-10-20T18:39:14.615Z,9.37
2022-10-20T18:41:43.544Z,9.47
2022-10-20T18:44:16.908Z,9.46
2022-10-20T18:46:46.506Z,9.56
2022-10-20T18:49:16.895Z,9.50
2022-10-20T18:51:45.381Z,9.49
2022-10-20T18:54:12.965Z,9.52
2022-10-20T18:56:40.552Z,9.56
2022-10-20T18:59:10.534Z,9.49
2022-10-20T19:01:39.592Z,9.48
2022-10-20T19:04:08.533Z,9.45
2022-10-20T19:06:39.752Z,9.42
2022-10-20T19:09:10.076Z,9.37
2022-10-20T19:11:39.877Z,9.39
2022-10-20T19:14:09.701Z,9.33
2022-10-20T19:16:38.384Z,9.36
2022-10-20T19:19:07.782Z,9.35
2022-10-20T19:21:36.336Z,9.34
2022-10-20T19:24:22.324Z,9.29
2022-10-20T19:27:24.567Z,9.33
2022-10-20T19:29:45.370Z,9.28
2022-10-20T19:32:12.809Z,9.20
2022-10-20T19:34:40.854Z,9.20
2022-10-20T19:37:09.138Z,9.22
2022-10-20T19:39:39.681Z,9.21
2022-10-20T19:42:07.601Z,9.22
2022-10-20T19:44:35.124Z,9.28
2022-10-20T19:47:02.761Z,9.24
2022-10-20T19:49:30.746Z,9.15
2022-10-20T19:51:58.202Z,9.13
2022-10-20T19:54:27.183Z,9.10
2022-10-20T19:56:54.754Z,9.16
2022-10-20T19:59:22.393Z,9.15
2022-10-20T20:01:50.131Z,9.29
2022-10-20T20:04:17.656Z,9.22
2022-10-20T20:06:45.139Z,9.06
2022-10-20T20:09:15.584Z,8.93
2022-10-20T20:11:43.343Z,8.97
2022-10-20T20:14:15.113Z,8.99
2022-10-20T20:19:17.910Z,8.90
2022-10-20T20:21:46.273Z,9.00
2022-10-20T20:24:14.849Z,9.01
2022-10-20T20:26:44.696Z,9.04
2022-10-20T20:29:12.408Z,9.02
2022-10-20T20:31:39.891Z,9.06
2022-10-20T20:34:07.413Z,9.07
2022-10-20T20:36:34.982Z,9.14
2022-10-20T20:39:02.693Z,9.19
2022-10-20T20:41:31.307Z,9.14
2022-10-20T20:43:59.269Z,9.10
2022-10-20T20:46:31.009Z,9.18
2022-10-20T20:48:58.710Z,9.24
2022-10-20T20:51:27.204Z,9.28
2022-10-20T20:53:57.540Z,9.31
2022-10-20T20:56:26.970Z,9.33
2022-10-20T20:58:55.545Z,9.28
2022-10-20T21:01:28.264Z,9.17
2022-10-20T21:03:58.062Z,9.16
2022-10-20T21:06:33.871Z,9.11
2022-10-20T21:09:08.441Z,9.14
2022-10-20T21:11:36.450Z,9.14
2022-10-20T21:14:04.777Z,9.23
2022-10-20T21:16:36.937Z,9.13
2022-10-20T21:19:08.641Z,9.16
2022-10-20T21:21:38.812Z,9.16
2022-10-20T21:24:06.846Z,9.23
2022-10-20T21:26:34.312Z,9.22
2022-10-20T21:29:02.150Z,9.21
2022-10-20T21:31:30.462Z,9.18
2022-10-20T21:34:04.437Z,9.24
2022-10-20T21:36:35.311Z,9.21
2022-10-20T21:39:05.872Z,9.24
2022-10-20T21:41:35.310Z,9.29
2022-10-20T21:44:04.733Z,9.32
2022-10-20T21:46:39.177Z,9.31
2022-10-20T21:49:09.947Z,9.36
2022-10-20T21:51:43.663Z,9.40
2022-10-20T21:54:23.068Z,9.49
2022-10-20T21:56:51.600Z,9.48
2022-10-20T21:59:24.189Z,9.47
2022-10-20T22:01:53.998Z,9.53
2022-10-20T22:04:23.940Z,9.54
2022-10-20T22:06:51.581Z,9.55
2022-10-20T22:09:21.112Z,9.51
2022-10-20T22:11:55.373Z,9.46
2022-10-20T22:14:23.719Z,9.47
2022-10-20T22:16:51.690Z,9.47
2022-10-20T22:19:21.731Z,9.52
2022-10-20T22:21:50.889Z,9.53
2022-10-20T22:24:19.251Z,9.56
2022-10-20T22:26:47.141Z,9.58
2022-10-20T22:29:14.610Z,9.55
2022-10-20T22:31:42.704Z,9.59
2022-10-20T22:34:10.911Z,9.52
2022-10-20T22:36:39.811Z,9.53
2022-10-20T22:39:08.641Z,9.53
2022-10-20T22:41:36.323Z,9.49
2022-10-20T22:44:04.089Z,9.51
2022-10-20T22:46:31.591Z,9.43
2022-10-20T22:51:31.511Z,9.32
2022-10-20T22:53:59.311Z,9.40
2022-10-20T22:56:26.823Z,9.34
2022-10-20T22:58:55.100Z,9.29
2022-10-20T23:01:24.471Z,9.26
2022-10-20T23:03:52.652Z,9.28
2022-10-20T23:06:25.292Z,9.26
2022-10-20T23:08:55.196Z,9.32
2022-10-20T23:11:23.330Z,9.24
2022-10-20T23:13:51.388Z,9.24
2022-10-20T23:16:19.502Z,9.22
2022-10-20T23:18:47.760Z,9.13
2022-10-20T23:21:15.529Z,9.13
2022-10-20T23:23:43.760Z,9.12
2022-10-20T23:26:12.000Z,9.12
2022-10-20T23:28:39.790Z,9.15
2022-10-20T23:31:09.389Z,9.17
2022-10-20T23:33:38.716Z,9.17
2022-10-20T23:36:06.670Z,9.22
2022-10-20T23:38:34.596Z,9.13
2022-10-20T23:41:01.940Z,9.25
2022-10-20T23:43:29.583Z,9.17
2022-10-20T23:45:57.220Z,9.16
2022-10-20T23:48:25.445Z,9.16
2022-10-20T23:50:53.169Z,9.09
2022-10-20T23:53:21.068Z,9.05
2022-10-20T23:55:48.699Z,9.07
2022-10-20T23:58:21.069Z,9.05
